sensor_id;sensor_type;location;lat;lon;timestamp;temperature;humidity
37488;DHT22;23342;52.620;13.300;2022-12-07T15:12:55;4.10;99.90
37488;DHT22;23342;52.620;13.300;2022-12-07T15:15:20;4.10;99.90
37488;DHT22;23342;52.620;13.300;2022-12-07T15:17:46;4.10;99.90
37488;DHT22;23342;52.620;13.300;2022-12-07T15:20:14;4.10;99.90
37488;DHT22;23342;52.620;13.300;2022-12-07T15:22:42;4.10;99.90
37488;DHT22;23342;52.620;13.300;2022-12-07T15:25:09;4.10;99.90
37488;DHT22;23342;52.620;13.300;2022-12-07T15:27:37;4.10;99.90
37488;DHT22;23342;52.620;13.300;2022-12-07T15:30:04;4.10;99.90
37488;DHT22;23342;52.620;13.300;2022-12-07T15:32:30;4.10;99.90
37488;DHT22;23342;52.620;13.300;2022-12-07T15:34:55;4.10;99.90
37488;DHT22;23342;52.620;13.300;2022-12-07T15:37:21;4.00;99.90
37488;DHT22;23342;52.620;13.300;2022-12-07T15:39:46;4.00;99.90
37488;DHT22;23342;52.620;13.300;2022-12-07T15:42:12;4.10;99.90
37488;DHT22;23342;52.620;13.300;2022-12-07T15:44:37;4.10;99.90
37488;DHT22;23342;52.620;13.300;2022-12-07T15:47:21;4.20;99.90
37488;DHT22;23342;52.620;13.300;2022-12-07T15:49:47;4.30;99.90
37488;DHT22;23342;52.620;13.300;2022-12-07T15:52:12;4.20;99.90
37488;DHT22;23342;52.620;13.300;2022-12-07T15:54:38;4.20;99.90
37488;DHT22;23342;52.620;13.300;2022-12-07T15:57:04;4.20;99.90
37488;DHT22;23342;52.620;13.300;2022-12-07T15:59:30;4.20;99.90
37488;DHT22;23342;52.620;13.300;2022-12-07T16:01:56;4.20;99.90
37488;DHT22;23342;52.620;13.300;2022-12-07T16:04:21;4.20;99.90
37488;DHT22;23342;52.620;13.300;2022-12-07T16:06:47;4.10;99.90
37488;DHT22;23342;52.620;13.300;2022-12-07T16:09:12;4.10;99.90
37488;DHT22;23342;52.620;13.300;2022-12-07T16:11:38;4.10;99.90
37488;DHT22;23342;52.620;13.300;2022-12-07T16:14:03;4.10;99.90
37488;DHT22;23342;52.620;13.300;2022-12-07T16:16:29;4.00;99.90
37488;DHT22;23342;52.620;13.300;2022-12-07T16:18:56;4.00;99.90
37488;DHT22;23342;52.620;13.300;2022-12-07T16:21:22;3.90;99.90
37488;DHT22;23342;52.620;13.300;2022-12-07T16:23:48;4.00;99.90
37488;DHT22;23342;52.620;13.300;2022-12-07T16:26:19;3.90;99.90
37488;DHT22;23342;52.620;13.300;2022-12-07T16:28:45;3.90;99.90
37488;DHT22;23342;52.620;13.300;2022-12-07T16:31:16;3.90;99.90
37488;DHT22;23342;52.620;13.300;2022-12-07T16:33:43;3.80;99.90
37488;DHT22;23342;52.620;13.300;2022-12-07T16:36:10;3.70;99.90
37488;DHT22;23342;52.620;13.300;2022-12-07T16:38:37;3.70;99.90
37488;DHT22;23342;52.620;13.300;2022-12-07T16:41:04;3.60;99.90
37488;DHT22;23342;52.620;13.300;2022-12-07T16:43:29;3.60;99.90
37488;DHT22;23342;52.620;13.300;2022-12-07T16:45:55;3.50;99.90
37488;DHT22;23342;52.620;13.300;2022-12-07T16:48:20;3.50;99.90
37488;DHT22;23342;52.620;13.300;2022-12-07T16:50:46;3.50;99.90
37488;DHT22;23342;52.620;13.300;2022-12-07T16:53:13;3.50;99.90
37488;DHT22;23342;52.620;13.300;2022-12-07T16:55:44;3.40;99.90
37488;DHT22;23342;52.620;13.300;2022-12-07T16:58:11;3.40;99.90
37488;DHT22;23342;52.620;13.300;2022-12-07T17:00:38;3.40;99.90
37488;DHT22;23342;52.620;13.300;2022-12-07T17:03:04;3.30;99.90
37488;DHT22;23342;52.620;13.300;2022-12-07T17:05:29;3.30;99.90
37488;DHT22;23342;52.620;13.300;2022-12-07T17:07:56;3.30;99.90
37488;DHT22;23342;52.620;13.300;2022-12-07T17:10:23;3.30;99.90
37488;DHT22;23342;52.620;13.300;2022-12-07T17:12:49;3.30;99.90
37488;DHT22;23342;52.620;13.300;2022-12-07T17:15:16;3.30;99.90
37488;DHT22;23342;52.620;13.300;2022-12-07T17:17:45;3.20;99.90
37488;DHT22;23342;52.620;13.300;2022-12-07T17:20:12;3.20;99.90
37488;DHT22;23342;52.620;13.300;2022-12-07T17:22:38;3.20;99.90
37488;DHT22;23342;52.620;13.300;2022-12-07T17:25:04;3.20;99.90
37488;DHT22;23342;52.620;13.300;2022-12-07T17:27:31;3.20;99.90
37488;DHT22;23342;52.620;13.300;2022-12-07T17:29:57;3.10;99.90
37488;DHT22;23342;52.620;13.300;2022-12-07T17:32:22;3.10;99.90
37488;DHT22;23342;52.620;13.300;2022-12-07T17:34:48;3.10;99.90
37488;DHT22;23342;52.620;13.300;2022-12-07T17:37:13;3.10;99.90
37488;DHT22;23342;52.620;13.300;2022-12-07T17:39:39;3.10;99.90
37488;DHT22;23342;52.620;13.300;2022-12-07T17:42:05;3.10;99.90
37488;DHT22;23342;52.620;13.300;2022-12-07T17:44:49;3.00;99.90
37488;DHT22;23342;52.620;13.300;2022-12-07T17:47:14;3.00;99.90
37488;DHT22;23342;52.620;13.300;2022-12-07T17:49:42;3.00;99.90
37488;DHT22;23342;52.620;13.300;2022-12-07T17:52:09;3.00;99.90
37488;DHT22;23342;52.620;13.300;2022-12-07T17:54:53;3.00;99.90
37488;DHT22;23342;52.620;13.300;2022-12-07T17:57:18;3.00;99.90
37488;DHT22;23342;52.620;13.300;2022-12-07T17:59:44;3.00;99.90
37488;DHT22;23342;52.620;13.300;2022-12-07T18:02:10;3.00;99.90
37488;DHT22;23342;52.620;13.300;2022-12-07T18:04:35;2.90;99.90
37488;DHT22;23342;52.620;13.300;2022-12-07T18:07:01;2.90;99.90
37488;DHT22;23342;52.620;13.300;2022-12-07T18:09:29;2.80;99.90
37488;DHT22;23342;52.620;13.300;2022-12-07T18:11:55;2.80;99.90
37488;DHT22;23342;52.620;13.300;2022-12-07T18:14:20;2.80;99.90
37488;DHT22;23342;52.620;13.300;2022-12-07T18:16:46;2.80;99.90
37488;DHT22;23342;52.620;13.300;2022-12-07T18:19:12;2.70;99.90
37488;DHT22;23342;52.620;13.300;2022-12-07T18:21:39;2.60;99.90
37488;DHT22;23342;52.620;13.300;2022-12-07T18:24:07;2.60;99.90
37488;DHT22;23342;52.620;13.300;2022-12-07T18:26:34;2.60;99.90
37488;DHT22;23342;52.620;13.300;2022-12-07T18:29:02;2.50;99.90
37488;DHT22;23342;52.620;13.300;2022-12-07T18:31:28;2.50;99.90
37488;DHT22;23342;52.620;13.300;2022-12-07T18:33:54;2.50;99.90
37488;DHT22;23342;52.620;13.300;2022-12-07T18:36:21;2.50;99.90
37488;DHT22;23342;52.620;13.300;2022-12-07T18:38:46;2.50;99.90
37488;DHT22;23342;52.620;13.300;2022-12-07T18:41:13;2.40;99.90
37488;DHT22;23342;52.620;13.300;2022-12-07T18:43:40;2.50;99.90
37488;DHT22;23342;52.620;13.300;2022-12-07T18:46:19;2.40;99.90
37488;DHT22;23342;52.620;13.300;2022-12-07T18:48:45;2.50;99.90
37488;DHT22;23342;52.620;13.300;2022-12-07T18:51:13;2.40;99.90
37488;DHT22;23342;52.620;13.300;2022-12-07T18:53:39;2.40;99.90
37488;DHT22;23342;52.620;13.300;2022-12-07T18:56:17;2.40;99.90
37488;DHT22;23342;52.620;13.300;2022-12-07T18:58:43;2.40;99.90
37488;DHT22;23342;52.620;13.300;2022-12-07T19:01:31;2.40;99.90
37488;DHT22;23342;52.620;13.300;2022-12-07T19:03:57;2.40;99.90
37488;DHT22;23342;52.620;13.300;2022-12-07T19:06:23;2.30;99.90
37488;DHT22;23342;52.620;13.300;2022-12-07T19:08:48;2.30;99.90
37488;DHT22;23342;52.620;13.300;2022-12-07T19:11:26;2.30;99.90
37488;DHT22;23342;52.620;13.300;2022-12-07T19:14:11;2.20;99.90
37488;DHT22;23342;52.620;13.300;2022-12-07T19:16:37;2.20;99.90
37488;DHT22;23342;52.620;13.300;2022-12-07T19:19:03;2.30;99.90
37488;DHT22;23342;52.620;13.300;2022-12-07T19:21:28;2.20;99.90
37488;DHT22;23342;52.620;13.300;2022-12-07T19:23:54;2.20;99.90
37488;DHT22;23342;52.620;13.300;2022-12-07T19:26:21;2.10;99.90
37488;DHT22;23342;52.620;13.300;2022-12-07T19:28:48;2.10;99.90
37488;DHT22;23342;52.620;13.300;2022-12-07T19:31:13;2.10;99.90
37488;DHT22;23342;52.620;13.300;2022-12-07T19:33:39;2.10;99.90
37488;DHT22;23342;52.620;13.300;2022-12-07T19:36:05;2.10;99.90
37488;DHT22;23342;52.620;13.300;2022-12-07T19:38:32;2.10;99.90
37488;DHT22;23342;52.620;13.300;2022-12-07T19:41:09;2.10;99.90
37488;DHT22;23342;52.620;13.300;2022-12-07T19:43:59;2.10;99.90
37488;DHT22;23342;52.620;13.300;2022-12-07T19:46:25;2.10;99.90
37488;DHT22;23342;52.620;13.300;2022-12-07T19:48:52;2.10;99.90
37488;DHT22;23342;52.620;13.300;2022-12-07T19:51:18;2.10;99.90
37488;DHT22;23342;52.620;13.300;2022-12-07T19:53:43;2.10;99.90
37488;DHT22;23342;52.620;13.300;2022-12-07T19:56:16;2.10;99.90
37488;DHT22;23342;52.620;13.300;2022-12-07T19:58:42;2.10;99.90
37488;DHT22;23342;52.620;13.300;2022-12-07T20:01:07;2.10;99.90
37488;DHT22;23342;52.620;13.300;2022-12-07T20:03:33;2.10;99.90
37488;DHT22;23342;52.620;13.300;2022-12-07T20:05:59;2.10;99.90
37488;DHT22;23342;52.620;13.300;2022-12-07T20:08:25;2.10;99.90
37488;DHT22;23342;52.620;13.300;2022-12-07T20:10:52;2.10;99.90
37488;DHT22;23342;52.620;13.300;2022-12-07T20:13:19;2.00;99.90
37488;DHT22;23342;52.620;13.300;2022-12-07T20:15:54;2.00;99.90
37488;DHT22;23342;52.620;13.300;2022-12-07T20:18:20;2.00;99.90
37488;DHT22;23342;52.620;13.300;2022-12-07T20:20:57;2.10;99.90
37488;DHT22;23342;52.620;13.300;2022-12-07T20:23:27;2.00;99.90
37488;DHT22;23342;52.620;13.300;2022-12-07T20:25:53;2.00;99.90
37488;DHT22;23342;52.620;13.300;2022-12-07T20:28:18;2.00;99.90
37488;DHT22;23342;52.620;13.300;2022-12-07T20:30:51;2.10;99.90
37488;DHT22;23342;52.620;13.300;2022-12-07T20:33:17;2.10;99.90
37488;DHT22;23342;52.620;13.300;2022-12-07T20:35:43;2.10;99.90
37488;DHT22;23342;52.620;13.300;2022-12-07T20:38:09;2.10;99.90
37488;DHT22;23342;52.620;13.300;2022-12-07T20:40:36;2.00;99.90
37488;DHT22;23342;52.620;13.300;2022-12-07T20:43:02;2.00;99.90
